createdAt,value
2022-11-02T00:01:29.940Z,10.11
2022-11-02T00:03:56.742Z,10.11
2022-11-02T00:06:23.373Z,10.16
2022-11-02T00:08:50.021Z,10.13
2022-11-02T00:11:16.658Z,10.10
2022-11-02T00:13:43.333Z,10.10
2022-11-02T00:16:12.034Z,10.13
2022-11-02T00:18:39.272Z,10.18
2022-11-02T00:21:06.047Z,10.23
2022-11-02T00:23:32.720Z,10.21
2022-11-02T00:26:02.480Z,10.26
2022-11-02T00:28:30.579Z,10.25
2022-11-02T00:30:58.023Z,10.24
2022-11-02T00:33:26.294Z,10.20
2022-11-02T00:35:54.245Z,10.18
2022-11-02T00:38:20.961Z,10.13
2022-11-02T00:40:47.651Z,10.11
2022-11-02T00:43:14.435Z,10.12
2022-11-02T00:45:41.092Z,10.11
2022-11-02T00:48:07.887Z,10.08
2022-11-02T00:50:34.771Z,10.11
2022-11-02T00:53:01.642Z,10.08
2022-11-02T00:55:28.469Z,10.10
2022-11-02T00:58:00.118Z,10.11
2022-11-02T01:00:27.002Z,10.13
2022-11-02T01:02:53.643Z,10.14
2022-11-02T01:05:20.334Z,10.08
2022-11-02T01:07:47.869Z,9.97
2022-11-02T01:10:17.124Z,9.95
2022-11-02T01:12:43.790Z,9.96
2022-11-02T01:15:10.932Z,9.94
2022-11-02T01:17:38.286Z,9.98
2022-11-02T01:20:06.146Z,9.97
2022-11-02T01:22:32.862Z,9.95
2022-11-02T01:24:59.537Z,9.92
2022-11-02T01:27:26.539Z,9.89
2022-11-02T01:29:53.274Z,9.88
2022-11-02T01:32:20.013Z,9.88
2022-11-02T01:34:46.692Z,9.88
2022-11-02T01:37:15.335Z,9.87
2022-11-02T01:39:42.003Z,9.86
2022-11-02T01:42:28.201Z,9.87
2022-11-02T01:44:56.395Z,9.87
2022-11-02T01:47:29.492Z,9.87
2022-11-02T01:50:03.228Z,9.87
2022-11-02T01:52:34.697Z,9.85
2022-11-02T01:55:07.094Z,9.82
2022-11-02T01:57:35.618Z,9.85
2022-11-02T02:00:08.116Z,9.83
2022-11-02T02:03:03.865Z,9.79
2022-11-02T02:05:33.662Z,9.79
2022-11-02T02:08:02.435Z,9.79
2022-11-02T02:10:30.892Z,9.76
2022-11-02T02:12:57.559Z,9.76
2022-11-02T02:15:25.806Z,9.73
2022-11-02T02:17:58.446Z,9.70
2022-11-02T02:20:40.040Z,9.70
2022-11-02T02:23:26.624Z,9.65
2022-11-02T02:26:15.239Z,9.63
2022-11-02T02:28:47.549Z,9.63
2022-11-02T02:31:36.488Z,9.64
2022-11-02T02:34:12.603Z,9.61
2022-11-02T02:36:51.762Z,9.57
2022-11-02T02:39:33.529Z,9.55
2022-11-02T02:42:13.922Z,9.50
2022-11-02T02:44:43.583Z,9.46
2022-11-02T02:47:18.894Z,9.41
2022-11-02T02:49:50.311Z,9.44
2022-11-02T02:52:18.521Z,9.42
2022-11-02T02:54:46.754Z,9.41
2022-11-02T02:57:15.359Z,9.38
2022-11-02T02:59:43.874Z,9.39
2022-11-02T03:02:14.357Z,9.26
2022-11-02T03:04:41.154Z,9.32
2022-11-02T03:07:10.267Z,9.32
2022-11-02T03:09:41.649Z,9.33
2022-11-02T03:12:46.952Z,9.28
2022-11-02T03:15:28.688Z,9.21
2022-11-02T03:18:16.956Z,9.22
2022-11-02T03:21:16.860Z,9.19
2022-11-02T03:24:22.509Z,9.19
2022-11-02T03:27:28.082Z,9.14
2022-11-02T03:30:01.135Z,9.18
2022-11-02T03:32:39.276Z,9.13
2022-11-02T03:35:15.702Z,9.14
2022-11-02T03:37:48.637Z,9.11
2022-11-02T03:40:20.388Z,9.11
2022-11-02T03:42:49.003Z,9.09
2022-11-02T03:45:19.054Z,9.06
2022-11-02T03:47:50.338Z,9.08
2022-11-02T03:50:20.812Z,9.05
2022-11-02T03:52:52.095Z,9.05
2022-11-02T03:55:20.733Z,9.04
2022-11-02T03:57:50.192Z,9.01
2022-11-02T04:00:22.339Z,8.99
2022-11-02T04:02:58.987Z,8.99
2022-11-02T04:05:35.013Z,8.97
2022-11-02T04:08:21.595Z,8.89
2022-11-02T04:11:12.415Z,8.90
2022-11-02T04:13:59.525Z,8.90
2022-11-02T04:16:29.666Z,8.90
2022-11-02T04:19:17.834Z,8.88
2022-11-02T04:22:05.426Z,8.85
2022-11-02T04:24:53.238Z,8.82
2022-11-02T04:27:21.320Z,8.87
2022-11-02T04:29:49.468Z,8.88
2022-11-02T04:32:37.415Z,8.89
2022-11-02T04:35:06.743Z,8.85
2022-11-02T04:37:59.793Z,8.82
2022-11-02T04:40:28.902Z,8.79
2022-11-02T04:42:56.230Z,8.72
2022-11-02T04:45:22.962Z,8.70
2022-11-02T04:47:49.786Z,8.74
2022-11-02T04:50:17.467Z,8.68
2022-11-02T04:53:01.045Z,8.68
2022-11-02T04:55:36.395Z,8.67
2022-11-02T04:58:15.191Z,8.66
2022-11-02T05:00:45.065Z,8.62
2022-11-02T05:03:12.999Z,8.61
2022-11-02T05:05:41.392Z,8.60
2022-11-02T05:08:08.190Z,8.58
2022-11-02T05:10:36.804Z,8.57
2022-11-02T05:13:04.758Z,8.57
2022-11-02T05:15:34.406Z,8.57
2022-11-02T05:18:05.085Z,8.56
2022-11-02T05:20:33.328Z,8.55
2022-11-02T05:23:00.120Z,8.60
2022-11-02T05:25:26.865Z,8.59
2022-11-02T05:27:57.183Z,8.56
2022-11-02T05:30:24.304Z,8.52
2022-11-02T05:32:56.021Z,8.54
2022-11-02T05:35:22.754Z,8.52
2022-11-02T05:37:55.516Z,8.52
2022-11-02T05:40:29.416Z,8.50
2022-11-02T05:43:00.988Z,8.55
2022-11-02T05:45:28.340Z,8.55
2022-11-02T05:47:56.123Z,8.52
2022-11-02T05:50:23.110Z,8.50
2022-11-02T05:52:56.163Z,8.46
2022-11-02T05:55:23.688Z,8.44
2022-11-02T05:57:53.722Z,8.44
2022-11-02T06:00:21.670Z,8.41
2022-11-02T06:02:49.191Z,8.41
2022-11-02T06:05:16.348Z,8.39
2022-11-02T06:07:43.069Z,8.38
2022-11-02T06:10:10.011Z,8.40
2022-11-02T06:12:39.412Z,8.39
2022-11-02T06:15:06.729Z,8.41
2022-11-02T06:17:40.607Z,8.40
2022-11-02T06:20:08.690Z,8.45
2022-11-02T06:22:40.304Z,8.44
2022-11-02T06:25:10.358Z,8.44
2022-11-02T06:27:57.856Z,8.35
2022-11-02T06:30:29.188Z,8.37
2022-11-02T06:32:56.328Z,8.40
2022-11-02T06:35:23.705Z,8.38
2022-11-02T06:38:01.105Z,8.41
2022-11-02T06:40:28.406Z,8.39
2022-11-02T06:43:17.027Z,8.44
2022-11-02T06:45:47.976Z,8.46
2022-11-02T06:48:15.316Z,8.52
2022-11-02T06:50:48.017Z,8.48
2022-11-02T06:53:21.160Z,8.48
2022-11-02T06:56:00.334Z,8.50
2022-11-02T06:58:31.144Z,8.55
2022-11-02T07:01:03.884Z,8.50
2022-11-02T07:03:34.640Z,8.55
2022-11-02T07:06:11.242Z,8.61
2022-11-02T07:08:40.889Z,8.63
2022-11-02T07:11:33.488Z,8.73
2022-11-02T07:17:32.034Z,8.77
2022-11-02T07:20:16.897Z,8.78
2022-11-02T07:23:05.575Z,8.77
2022-11-02T07:25:33.618Z,8.83
2022-11-02T07:28:01.577Z,8.89
2022-11-02T07:30:29.504Z,8.91
2022-11-02T07:32:56.520Z,8.96
2022-11-02T07:35:26.651Z,8.97
2022-11-02T07:38:01.834Z,9.02
2022-11-02T07:40:29.780Z,9.06
2022-11-02T07:42:57.897Z,9.11
2022-11-02T07:45:37.770Z,9.16
2022-11-02T07:48:04.658Z,9.26
2022-11-02T07:50:32.023Z,9.32
2022-11-02T07:53:00.821Z,9.44
2022-11-02T07:55:29.551Z,9.51
2022-11-02T07:58:04.200Z,9.57
2022-11-02T08:00:34.275Z,9.69
2022-11-02T08:03:02.642Z,9.77
2022-11-02T08:05:40.565Z,9.84
2022-11-02T08:08:11.709Z,9.90
2022-11-02T08:10:40.337Z,9.97
2022-11-02T08:13:10.024Z,10.00
2022-11-02T08:15:37.651Z,10.00
2022-11-02T08:18:07.171Z,10.04
2022-11-02T08:20:35.182Z,10.09
2022-11-02T08:23:02.483Z,10.09
2022-11-02T08:25:29.326Z,10.10
2022-11-02T08:27:58.613Z,10.21
2022-11-02T08:30:30.223Z,10.26
2022-11-02T08:33:08.876Z,10.30
2022-11-02T08:35:37.778Z,10.30
2022-11-02T08:38:05.759Z,10.35
2022-11-02T08:40:32.931Z,10.38
2022-11-02T08:43:01.256Z,10.41
2022-11-02T08:45:32.309Z,10.50
2022-11-02T08:48:07.367Z,10.58
2022-11-02T08:50:39.067Z,10.60
2022-11-02T08:53:06.295Z,10.59
2022-11-02T08:55:33.355Z,10.60
2022-11-02T08:58:03.012Z,10.61
2022-11-02T09:00:36.217Z,10.60
2022-11-02T09:03:11.297Z,10.56
2022-11-02T09:05:40.974Z,10.51
2022-11-02T09:08:11.734Z,10.51
2022-11-02T09:10:38.501Z,10.40
2022-11-02T09:13:07.768Z,10.47
2022-11-02T09:15:36.663Z,10.54
2022-11-02T09:18:20.279Z,10.54
2022-11-02T09:20:48.683Z,10.56
2022-11-02T09:23:17.287Z,10.64
2022-11-02T09:25:44.448Z,10.65
2022-11-02T09:28:11.551Z,10.74
2022-11-02T09:30:40.079Z,10.81
2022-11-02T09:33:11.697Z,10.91
2022-11-02T09:35:41.517Z,10.95
2022-11-02T09:38:08.218Z,10.94
2022-11-02T09:41:25.159Z,11.02
2022-11-02T09:44:06.279Z,11.11
2022-11-02T09:46:40.580Z,11.17
2022-11-02T09:49:20.957Z,11.22
2022-11-02T09:51:49.267Z,11.33
2022-11-02T09:54:26.040Z,11.40
2022-11-02T09:56:58.906Z,11.46
2022-11-02T09:59:26.650Z,11.56
2022-11-02T10:02:15.445Z,11.61
2022-11-02T10:05:07.261Z,11.68
2022-11-02T10:07:52.705Z,11.74
2022-11-02T10:11:10.949Z,11.86
2022-11-02T10:13:54.162Z,11.96
2022-11-02T10:16:39.561Z,12.06
2022-11-02T10:19:12.462Z,12.16
2022-11-02T10:21:39.690Z,12.24
2022-11-02T10:24:18.706Z,12.29
2022-11-02T10:26:45.379Z,12.38
2022-11-02T10:29:30.322Z,12.46
2022-11-02T10:31:57.056Z,12.51
2022-11-02T10:34:27.938Z,12.64
2022-11-02T10:37:19.541Z,12.78
2022-11-02T10:39:59.606Z,12.90
2022-11-02T10:43:04.077Z,12.97
2022-11-02T10:45:44.367Z,12.96
2022-11-02T10:48:40.478Z,12.94
2022-11-02T10:51:09.768Z,13.01
2022-11-02T10:53:41.845Z,13.05
2022-11-02T10:56:21.606Z,13.09
2022-11-02T10:58:54.277Z,13.14
2022-11-02T11:01:21.042Z,13.22
2022-11-02T11:03:57.976Z,13.26
2022-11-02T11:06:44.935Z,13.31
2022-11-02T11:09:20.486Z,13.32
2022-11-02T11:12:02.313Z,13.29
2022-11-02T11:20:35.773Z,13.37
2022-11-02T11:23:22.111Z,13.32
2022-11-02T11:25:57.693Z,13.28
2022-11-02T11:29:57.412Z,13.14
2022-11-02T11:32:30.146Z,13.16
2022-11-02T11:35:03.941Z,13.20
2022-11-02T11:37:31.328Z,13.25
2022-11-02T11:40:04.695Z,13.27
2022-11-02T11:42:34.825Z,13.25
2022-11-02T11:45:05.904Z,13.26
2022-11-02T11:47:36.468Z,13.25
2022-11-02T11:50:16.273Z,13.26
2022-11-02T11:52:45.055Z,13.24
2022-11-02T11:55:27.015Z,13.22
2022-11-02T11:58:20.363Z,13.13
2022-11-02T12:01:09.351Z,13.13
2022-11-02T12:03:57.329Z,13.11
2022-11-02T12:06:31.649Z,13.12
2022-11-02T12:09:05.974Z,13.14
2022-11-02T12:11:48.044Z,13.11
2022-11-02T12:14:27.321Z,13.14
2022-11-02T12:17:06.731Z,13.14
2022-11-02T12:19:45.534Z,13.13
2022-11-02T12:22:30.292Z,13.13
2022-11-02T12:25:05.930Z,13.16
2022-11-02T12:27:41.749Z,13.14
2022-11-02T12:30:22.143Z,13.19
2022-11-02T12:32:55.706Z,13.19
2022-11-02T12:35:44.648Z,13.20
2022-11-02T12:38:29.797Z,13.18
2022-11-02T12:41:18.544Z,13.19
2022-11-02T12:43:47.462Z,13.18
2022-11-02T12:46:22.998Z,13.18
2022-11-02T12:49:15.419Z,13.17
2022-11-02T12:51:51.670Z,13.24
2022-11-02T12:54:22.201Z,13.28
2022-11-02T12:56:50.840Z,13.29
2022-11-02T12:59:29.151Z,13.27
2022-11-02T13:02:10.403Z,13.35
2022-11-02T13:04:52.899Z,13.49
2022-11-02T13:07:26.190Z,13.57
2022-11-02T13:09:59.605Z,13.50
2022-11-02T13:12:27.047Z,13.61
2022-11-02T13:14:56.119Z,13.78
2022-11-02T13:17:27.567Z,13.89
2022-11-02T13:19:59.591Z,14.07
2022-11-02T13:22:31.121Z,14.08
2022-11-02T13:25:05.289Z,13.95
2022-11-02T13:27:37.189Z,13.84
2022-11-02T13:30:14.434Z,13.59
2022-11-02T13:32:44.529Z,13.53
2022-11-02T13:35:17.062Z,13.51
2022-11-02T13:37:48.498Z,13.48
2022-11-02T13:40:22.664Z,13.61
2022-11-02T13:42:58.185Z,13.73
2022-11-02T13:48:07.153Z,13.93
2022-11-02T13:50:39.950Z,13.91
2022-11-02T13:53:08.961Z,13.94
2022-11-02T13:55:48.135Z,13.98
2022-11-02T13:58:22.851Z,14.01
2022-11-02T14:00:49.869Z,14.05
2022-11-02T14:03:22.893Z,14.10
2022-11-02T14:05:53.874Z,14.15
2022-11-02T14:08:36.440Z,14.11
2022-11-02T14:11:24.892Z,14.09
2022-11-02T14:13:54.972Z,14.12
2022-11-02T14:16:46.161Z,13.98
2022-11-02T14:19:34.408Z,14.04
2022-11-02T14:22:01.038Z,14.14
2022-11-02T14:24:33.974Z,14.11
2022-11-02T14:27:02.479Z,14.06
2022-11-02T14:29:51.625Z,14.11
2022-11-02T14:32:21.344Z,14.12
2022-11-02T14:35:22.285Z,14.11
2022-11-02T14:38:01.231Z,14.00
2022-11-02T14:40:31.961Z,13.92
2022-11-02T14:43:03.141Z,13.80
2022-11-02T14:45:41.352Z,13.76
2022-11-02T14:48:14.298Z,13.60
2022-11-02T14:50:41.025Z,13.53
2022-11-02T14:53:09.906Z,13.44
2022-11-02T14:55:37.581Z,13.31
2022-11-02T14:58:11.025Z,13.22
2022-11-02T15:00:47.428Z,13.13
2022-11-02T15:03:34.494Z,12.99
2022-11-02T15:06:22.808Z,12.91
2022-11-02T15:08:59.579Z,12.84
2022-11-02T15:11:45.163Z,12.73
2022-11-02T15:14:37.971Z,12.67
2022-11-02T15:17:10.446Z,12.65
2022-11-02T15:19:47.237Z,12.59
2022-11-02T15:23:08.794Z,12.54
2022-11-02T15:25:37.754Z,12.54
2022-11-02T15:28:08.185Z,12.57
2022-11-02T15:30:42.582Z,12.51
2022-11-02T15:33:17.299Z,12.56
2022-11-02T15:35:44.434Z,12.55
2022-11-02T15:38:18.550Z,12.46
2022-11-02T15:40:49.316Z,12.39
2022-11-02T15:43:29.663Z,12.32
2022-11-02T15:46:08.262Z,12.29
2022-11-02T15:48:51.385Z,12.22
2022-11-02T15:51:25.011Z,12.06
2022-11-02T15:53:54.723Z,12.00
2022-11-02T15:56:43.171Z,11.94
2022-11-02T15:59:44.587Z,11.82
2022-11-02T16:09:44.573Z,11.67
2022-11-02T16:15:35.471Z,11.76
2022-11-02T16:23:02.718Z,11.49
2022-11-02T16:25:46.577Z,11.43
2022-11-02T16:28:33.275Z,11.36
2022-11-02T16:31:18.512Z,11.38
2022-11-02T16:33:50.547Z,11.37
2022-11-02T16:36:20.418Z,11.38
2022-11-02T16:38:57.731Z,11.31
2022-11-02T16:41:29.957Z,11.28
2022-11-02T16:43:58.281Z,11.34
2022-11-02T16:46:31.118Z,11.23
2022-11-02T16:49:07.796Z,11.15
2022-11-02T16:51:37.532Z,11.15
2022-11-02T16:54:25.479Z,11.09
2022-11-02T16:56:53.068Z,11.06
2022-11-02T16:59:21.494Z,11.01
2022-11-02T17:01:48.397Z,11.00
2022-11-02T17:04:25.140Z,10.98
2022-11-02T17:06:54.969Z,10.89
2022-11-02T17:09:29.840Z,10.83
2022-11-02T17:11:59.306Z,10.78
2022-11-02T17:14:27.000Z,10.80
2022-11-02T17:16:59.803Z,10.74
2022-11-02T17:19:41.489Z,10.69
2022-11-02T17:22:15.885Z,10.70
2022-11-02T17:24:42.865Z,10.66
2022-11-02T17:27:27.384Z,10.58
2022-11-02T17:29:57.521Z,10.60
2022-11-02T17:32:24.325Z,10.55
2022-11-02T17:34:56.622Z,10.50
2022-11-02T17:37:30.698Z,10.50
2022-11-02T17:40:00.764Z,10.47
2022-11-02T17:42:46.620Z,10.46
2022-11-02T17:45:30.093Z,10.42
2022-11-02T17:47:58.249Z,10.50
2022-11-02T17:50:26.372Z,10.52
2022-11-02T17:52:53.364Z,10.45
2022-11-02T17:55:27.283Z,10.50
2022-11-02T17:57:55.461Z,10.50
2022-11-02T18:00:23.365Z,10.50
2022-11-02T18:02:52.383Z,10.44
2022-11-02T18:05:23.899Z,10.45
2022-11-02T18:07:51.119Z,10.37
2022-11-02T18:10:19.130Z,10.30
2022-11-02T18:12:45.918Z,10.29
2022-11-02T18:15:17.549Z,10.30
2022-11-02T18:17:44.256Z,10.33
2022-11-02T18:20:12.068Z,10.29
2022-11-02T18:22:39.008Z,10.25
2022-11-02T18:25:11.370Z,10.27
2022-11-02T18:27:38.883Z,10.28
2022-11-02T18:30:07.376Z,10.27
2022-11-02T18:32:38.230Z,10.31
2022-11-02T18:35:05.426Z,10.19
2022-11-02T18:37:32.700Z,10.25
2022-11-02T18:39:59.491Z,10.27
2022-11-02T18:42:26.242Z,10.19
2022-11-02T18:44:52.961Z,10.13
2022-11-02T18:47:19.724Z,10.13
2022-11-02T18:49:46.420Z,10.20
2022-11-02T18:52:18.332Z,10.20
2022-11-02T18:54:48.911Z,10.22
2022-11-02T18:57:15.821Z,10.24
2022-11-02T18:59:42.739Z,10.23
2022-11-02T19:02:10.110Z,10.28
2022-11-02T19:04:36.963Z,10.23
2022-11-02T19:07:22.506Z,10.22
2022-11-02T19:09:49.199Z,10.16
2022-11-02T19:12:19.047Z,10.15
2022-11-02T19:14:47.149Z,10.17
2022-11-02T19:17:14.963Z,10.13
2022-11-02T19:19:43.380Z,10.13
2022-11-02T19:22:13.794Z,10.08
2022-11-02T19:24:40.993Z,9.94
2022-11-02T19:27:12.546Z,9.99
2022-11-02T19:29:39.210Z,9.96
2022-11-02T19:32:05.893Z,9.96
2022-11-02T19:34:33.881Z,9.94
2022-11-02T19:37:00.862Z,9.95
2022-11-02T19:39:27.685Z,9.96
2022-11-02T19:41:54.493Z,10.07
2022-11-02T19:44:21.511Z,10.07
2022-11-02T19:46:48.193Z,10.03
2022-11-02T19:49:14.930Z,9.99
2022-11-02T19:51:41.646Z,9.94
2022-11-02T19:54:10.837Z,9.98
2022-11-02T19:56:37.795Z,9.94
2022-11-02T19:59:05.651Z,9.92
2022-11-02T20:01:42.535Z,9.84
2022-11-02T20:04:10.262Z,9.83
2022-11-02T20:06:39.520Z,9.83
2022-11-02T20:09:08.607Z,9.89
2022-11-02T20:11:36.294Z,9.92
2022-11-02T20:14:05.274Z,9.89
2022-11-02T20:16:31.990Z,9.89
2022-11-02T20:18:59.471Z,9.87
2022-11-02T20:21:35.463Z,9.87
2022-11-02T20:24:05.349Z,9.91
2022-11-02T20:26:34.798Z,9.85
2022-11-02T20:29:03.566Z,9.95
2022-11-02T20:31:36.175Z,9.92
2022-11-02T20:34:04.836Z,9.88
2022-11-02T20:36:31.646Z,9.76
2022-11-02T20:38:58.713Z,9.72
2022-11-02T20:41:26.215Z,9.71
2022-11-02T20:43:55.603Z,9.68
2022-11-02T20:46:41.545Z,9.59
2022-11-02T20:49:20.906Z,9.62
2022-11-02T20:51:52.959Z,9.67
2022-11-02T20:54:20.955Z,9.59
2022-11-02T20:56:48.727Z,9.61
2022-11-02T20:59:15.572Z,9.45
2022-11-02T21:01:42.373Z,9.54
2022-11-02T21:04:09.379Z,9.47
2022-11-02T21:06:36.082Z,9.45
2022-11-02T21:09:09.076Z,9.44
2022-11-02T21:11:57.366Z,9.37
2022-11-02T21:14:24.088Z,9.29
2022-11-02T21:16:50.758Z,9.29
2022-11-02T21:19:17.484Z,9.30
2022-11-02T21:21:45.138Z,9.27
2022-11-02T21:24:12.212Z,9.28
2022-11-02T21:26:39.020Z,9.28
2022-11-02T21:29:05.912Z,9.26
2022-11-02T21:31:32.673Z,9.25
2022-11-02T21:33:59.339Z,9.23
2022-11-02T21:36:26.063Z,9.23
2022-11-02T21:38:52.869Z,9.19
2022-11-02T21:41:21.626Z,9.19
2022-11-02T21:43:51.895Z,9.21
2022-11-02T21:46:20.030Z,9.22
2022-11-02T21:48:47.129Z,9.21
2022-11-02T21:51:16.284Z,9.18
2022-11-02T21:53:44.078Z,9.26
2022-11-02T21:56:13.090Z,9.27
2022-11-02T21:58:44.716Z,9.26
2022-11-02T22:01:39.832Z,9.16
2022-11-02T22:04:07.406Z,9.11
2022-11-02T22:06:35.043Z,9.12
2022-11-02T22:09:02.800Z,9.10
2022-11-02T22:11:29.559Z,9.07
2022-11-02T22:13:58.243Z,9.07
2022-11-02T22:16:31.855Z,9.00
2022-11-02T22:19:00.164Z,8.92
2022-11-02T22:21:29.635Z,8.90
2022-11-02T22:23:56.843Z,8.82
2022-11-02T22:26:28.645Z,8.79
2022-11-02T22:28:57.792Z,8.80
2022-11-02T22:31:26.890Z,8.81
2022-11-02T22:33:55.839Z,8.79
2022-11-02T22:36:27.535Z,8.74
2022-11-02T22:38:55.332Z,8.79
2022-11-02T22:41:29.381Z,8.77
2022-11-02T22:44:01.778Z,8.74
2022-11-02T22:46:30.161Z,8.69
2022-11-02T22:48:58.665Z,8.70
2022-11-02T22:51:27.868Z,8.66
2022-11-02T22:53:54.764Z,8.67
2022-11-02T22:56:23.377Z,8.67
2022-11-02T22:58:50.621Z,8.62
2022-11-02T23:01:21.034Z,8.66
2022-11-02T23:03:48.511Z,8.62
2022-11-02T23:06:16.428Z,8.57
2022-11-02T23:08:45.872Z,8.56
2022-11-02T23:11:22.636Z,8.54
2022-11-02T23:13:52.099Z,8.53
2022-11-02T23:16:22.994Z,8.52
2022-11-02T23:19:12.530Z,8.50
2022-11-02T23:21:41.053Z,8.45
2022-11-02T23:24:27.080Z,8.49
2022-11-02T23:26:54.364Z,8.41
2022-11-02T23:29:39.805Z,8.43
2022-11-02T23:32:27.963Z,8.40
2022-11-02T23:35:14.457Z,8.31
2022-11-02T23:37:41.644Z,8.24
2022-11-02T23:40:09.209Z,8.17
2022-11-02T23:42:36.049Z,8.14
2022-11-02T23:45:03.091Z,8.10
2022-11-02T23:47:49.314Z,8.02
2022-11-02T23:50:36.174Z,7.95
2022-11-02T23:53:22.719Z,7.90
2022-11-02T23:56:10.902Z,7.83
2022-11-02T23:58:38.045Z,7.82
